sensor_id;sensor_type;location;lat;lon;timestamp;P1;durP1;ratioP1;P2;durP2;ratioP2
19846;SDS011;10084;50.518;8.588;2023-03-01T05:32:35;1.87;;;1.77;;
19846;SDS011;10084;50.518;8.588;2023-03-01T05:35:01;1.73;;;1.50;;
19846;SDS011;10084;50.518;8.588;2023-03-01T05:37:27;1.90;;;1.70;;
19846;SDS011;10084;50.518;8.588;2023-03-01T05:39:54;2.13;;;1.93;;
19846;SDS011;10084;50.518;8.588;2023-03-01T05:42:19;1.73;;;1.60;;
19846;SDS011;10084;50.518;8.588;2023-03-01T05:44:45;1.93;;;1.83;;
19846;SDS011;10084;50.518;8.588;2023-03-01T05:47:11;1.57;;;1.47;;
19846;SDS011;10084;50.518;8.588;2023-03-01T05:49:37;1.93;;;1.73;;
19846;SDS011;10084;50.518;8.588;2023-03-01T05:52:03;1.50;;;1.40;;
19846;SDS011;10084;50.518;8.588;2023-03-01T05:54:29;3.47;;;1.97;;
19846;SDS011;10084;50.518;8.588;2023-03-01T05:56:54;1.83;;;1.73;;
19846;SDS011;10084;50.518;8.588;2023-03-01T05:59:21;1.70;;;1.60;;
19846;SDS011;10084;50.518;8.588;2023-03-01T06:01:47;1.80;;;1.70;;
19846;SDS011;10084;50.518;8.588;2023-03-01T06:04:13;1.63;;;1.53;;
19846;SDS011;10084;50.518;8.588;2023-03-01T06:06:39;2.23;;;2.13;;
19846;SDS011;10084;50.518;8.588;2023-03-01T06:09:05;2.23;;;2.00;;
19846;SDS011;10084;50.518;8.588;2023-03-01T06:11:34;1.97;;;1.87;;
19846;SDS011;10084;50.518;8.588;2023-03-01T06:14:01;2.33;;;2.13;;
19846;SDS011;10084;50.518;8.588;2023-03-01T06:16:27;1.70;;;1.60;;
19846;SDS011;10084;50.518;8.588;2023-03-01T06:18:52;2.40;;;1.90;;
19846;SDS011;10084;50.518;8.588;2023-03-01T06:21:18;2.30;;;1.70;;
19846;SDS011;10084;50.518;8.588;2023-03-01T06:23:44;3.17;;;2.00;;
19846;SDS011;10084;50.518;8.588;2023-03-01T06:26:10;1.83;;;1.73;;
19846;SDS011;10084;50.518;8.588;2023-03-01T06:28:35;1.93;;;1.83;;
19846;SDS011;10084;50.518;8.588;2023-03-01T06:31:01;1.90;;;1.80;;
19846;SDS011;10084;50.518;8.588;2023-03-01T06:33:27;2.73;;;2.20;;
19846;SDS011;10084;50.518;8.588;2023-03-01T06:35:56;2.53;;;1.90;;
19846;SDS011;10084;50.518;8.588;2023-03-01T06:38:22;2.50;;;2.30;;
19846;SDS011;10084;50.518;8.588;2023-03-01T06:40:52;4.53;;;1.90;;
19846;SDS011;10084;50.518;8.588;2023-03-01T06:43:19;2.17;;;1.97;;
19846;SDS011;10084;50.518;8.588;2023-03-01T06:45:46;2.20;;;2.10;;
19846;SDS011;10084;50.518;8.588;2023-03-01T06:48:11;2.23;;;2.03;;
19846;SDS011;10084;50.518;8.588;2023-03-01T06:50:37;1.70;;;1.60;;
19846;SDS011;10084;50.518;8.588;2023-03-01T06:53:03;2.30;;;1.43;;
19846;SDS011;10084;50.518;8.588;2023-03-01T06:55:32;2.13;;;1.97;;
19846;SDS011;10084;50.518;8.588;2023-03-01T06:58:06;1.80;;;1.70;;
19846;SDS011;10084;50.518;8.588;2023-03-01T07:00:32;1.70;;;1.60;;
19846;SDS011;10084;50.518;8.588;2023-03-01T07:02:58;1.70;;;1.60;;
19846;SDS011;10084;50.518;8.588;2023-03-01T07:05:25;1.70;;;1.60;;
19846;SDS011;10084;50.518;8.588;2023-03-01T07:07:51;1.53;;;1.33;;
19846;SDS011;10084;50.518;8.588;2023-03-01T07:10:18;9.87;;;2.23;;
19846;SDS011;10084;50.518;8.588;2023-03-01T07:12:43;3.17;;;2.37;;
19846;SDS011;10084;50.518;8.588;2023-03-01T07:15:18;3.30;;;3.10;;
19846;SDS011;10084;50.518;8.588;2023-03-01T07:18:22;2.43;;;2.13;;
19846;SDS011;10084;50.518;8.588;2023-03-01T07:20:48;2.33;;;2.13;;
19846;SDS011;10084;50.518;8.588;2023-03-01T07:23:14;2.70;;;2.50;;
19846;SDS011;10084;50.518;8.588;2023-03-01T07:25:41;2.60;;;2.40;;
19846;SDS011;10084;50.518;8.588;2023-03-01T07:28:06;3.23;;;2.40;;
19846;SDS011;10084;50.518;8.588;2023-03-01T07:30:33;2.63;;;2.43;;
19846;SDS011;10084;50.518;8.588;2023-03-01T07:32:58;3.87;;;2.70;;
19846;SDS011;10084;50.518;8.588;2023-03-01T07:35:25;3.17;;;2.97;;
19846;SDS011;10084;50.518;8.588;2023-03-01T07:37:52;3.47;;;3.13;;
19846;SDS011;10084;50.518;8.588;2023-03-01T07:40:18;3.20;;;3.00;;
19846;SDS011;10084;50.518;8.588;2023-03-01T07:42:44;4.63;;;2.80;;
19846;SDS011;10084;50.518;8.588;2023-03-01T07:45:10;3.33;;;3.00;;
19846;SDS011;10084;50.518;8.588;2023-03-01T07:47:37;2.97;;;2.77;;
19846;SDS011;10084;50.518;8.588;2023-03-01T07:50:03;2.50;;;2.40;;
19846;SDS011;10084;50.518;8.588;2023-03-01T07:52:29;2.73;;;2.53;;
19846;SDS011;10084;50.518;8.588;2023-03-01T07:54:56;3.30;;;2.90;;
19846;SDS011;10084;50.518;8.588;2023-03-01T07:57:22;3.30;;;3.10;;
19846;SDS011;10084;50.518;8.588;2023-03-01T07:59:48;3.63;;;3.03;;
19846;SDS011;10084;50.518;8.588;2023-03-01T08:02:14;7.60;;;3.07;;
19846;SDS011;10084;50.518;8.588;2023-03-01T08:04:40;3.00;;;2.67;;
19846;SDS011;10084;50.518;8.588;2023-03-01T08:07:07;3.10;;;2.83;;
19846;SDS011;10084;50.518;8.588;2023-03-01T08:09:36;9.43;;;8.63;;
19846;SDS011;10084;50.518;8.588;2023-03-01T08:12:03;35.17;;;27.67;;
19846;SDS011;10084;50.518;8.588;2023-03-01T08:14:30;73.37;;;44.50;;
19846;SDS011;10084;50.518;8.588;2023-03-01T08:16:56;93.70;;;57.57;;
19846;SDS011;10084;50.518;8.588;2023-03-01T08:19:28;164.53;;;108.13;;
19846;SDS011;10084;50.518;8.588;2023-03-01T08:21:54;116.50;;;71.53;;
19846;SDS011;10084;50.518;8.588;2023-03-01T08:24:23;104.07;;;68.43;;
19846;SDS011;10084;50.518;8.588;2023-03-01T08:26:49;82.60;;;54.17;;
19846;SDS011;10084;50.518;8.588;2023-03-01T08:29:14;79.47;;;50.87;;
19846;SDS011;10084;50.518;8.588;2023-03-01T08:31:40;58.03;;;36.10;;
19846;SDS011;10084;50.518;8.588;2023-03-01T08:34:07;48.17;;;32.63;;
19846;SDS011;10084;50.518;8.588;2023-03-01T08:36:41;55.83;;;36.83;;
19846;SDS011;10084;50.518;8.588;2023-03-01T08:39:09;48.30;;;33.13;;
19846;SDS011;10084;50.518;8.588;2023-03-01T08:41:37;18.53;;;16.93;;
19846;SDS011;10084;50.518;8.588;2023-03-01T08:44:04;20.93;;;18.90;;
19846;SDS011;10084;50.518;8.588;2023-03-01T08:46:33;26.63;;;20.70;;
19846;SDS011;10084;50.518;8.588;2023-03-01T08:49:08;26.57;;;17.77;;
19846;SDS011;10084;50.518;8.588;2023-03-01T08:51:38;19.80;;;16.87;;
19846;SDS011;10084;50.518;8.588;2023-03-01T08:54:11;14.17;;;12.57;;
19846;SDS011;10084;50.518;8.588;2023-03-01T08:56:38;22.30;;;17.27;;
19846;SDS011;10084;50.518;8.588;2023-03-01T08:59:04;17.30;;;15.77;;
19846;SDS011;10084;50.518;8.588;2023-03-01T09:01:30;14.10;;;12.87;;
19846;SDS011;10084;50.518;8.588;2023-03-01T09:03:55;16.13;;;11.57;;
19846;SDS011;10084;50.518;8.588;2023-03-01T09:06:21;10.87;;;9.97;;
19846;SDS011;10084;50.518;8.588;2023-03-01T09:08:48;9.60;;;8.70;;
19846;SDS011;10084;50.518;8.588;2023-03-01T09:11:15;9.23;;;8.47;;
19846;SDS011;10084;50.518;8.588;2023-03-01T09:13:44;7.70;;;7.20;;
19846;SDS011;10084;50.518;8.588;2023-03-01T09:16:11;8.33;;;7.73;;
19846;SDS011;10084;50.518;8.588;2023-03-01T09:18:38;7.43;;;6.80;;
19846;SDS011;10084;50.518;8.588;2023-03-01T09:21:05;6.60;;;6.10;;
19846;SDS011;10084;50.518;8.588;2023-03-01T09:23:36;6.93;;;6.30;;
19846;SDS011;10084;50.518;8.588;2023-03-01T09:26:15;8.53;;;5.50;;
19846;SDS011;10084;50.518;8.588;2023-03-01T09:28:44;5.70;;;5.13;;
19846;SDS011;10084;50.518;8.588;2023-03-01T09:31:11;9.17;;;5.30;;
19846;SDS011;10084;50.518;8.588;2023-03-01T09:33:45;6.63;;;5.33;;
19846;SDS011;10084;50.518;8.588;2023-03-01T09:36:22;5.43;;;5.13;;
19846;SDS011;10084;50.518;8.588;2023-03-01T09:38:50;6.63;;;5.03;;
19846;SDS011;10084;50.518;8.588;2023-03-01T09:44:08;7.00;;;4.57;;
19846;SDS011;10084;50.518;8.588;2023-03-01T09:46:44;6.27;;;5.10;;
19846;SDS011;10084;50.518;8.588;2023-03-01T09:49:15;5.57;;;4.80;;
19846;SDS011;10084;50.518;8.588;2023-03-01T09:54:55;4.30;;;4.07;;
19846;SDS011;10084;50.518;8.588;2023-03-01T09:57:38;4.43;;;4.00;;
19846;SDS011;10084;50.518;8.588;2023-03-01T10:00:28;6.63;;;4.03;;
19846;SDS011;10084;50.518;8.588;2023-03-01T10:06:08;4.40;;;4.03;;
19846;SDS011;10084;50.518;8.588;2023-03-01T10:08:40;4.13;;;3.83;;
19846;SDS011;10084;50.518;8.588;2023-03-01T10:11:21;4.30;;;4.00;;
19846;SDS011;10084;50.518;8.588;2023-03-01T10:16:40;3.50;;;3.30;;
19846;SDS011;10084;50.518;8.588;2023-03-01T10:19:56;3.60;;;3.33;;
19846;SDS011;10084;50.518;8.588;2023-03-01T10:22:15;3.30;;;3.10;;
19846;SDS011;10084;50.518;8.588;2023-03-01T10:24:43;3.40;;;3.10;;
19846;SDS011;10084;50.518;8.588;2023-03-01T10:32:23;3.30;;;3.00;;
19846;SDS011;10084;50.518;8.588;2023-03-01T10:34:50;3.10;;;2.80;;
19846;SDS011;10084;50.518;8.588;2023-03-01T10:37:18;3.47;;;3.17;;
19846;SDS011;10084;50.518;8.588;2023-03-01T10:40:06;3.40;;;3.10;;
19846;SDS011;10084;50.518;8.588;2023-03-01T10:42:34;7.43;;;2.60;;
19846;SDS011;10084;50.518;8.588;2023-03-01T10:45:31;3.10;;;2.80;;
19846;SDS011;10084;50.518;8.588;2023-03-01T10:48:13;3.63;;;3.33;;
19846;SDS011;10084;50.518;8.588;2023-03-01T10:50:49;3.00;;;2.80;;
19846;SDS011;10084;50.518;8.588;2023-03-01T10:53:33;3.13;;;2.87;;
19846;SDS011;10084;50.518;8.588;2023-03-01T10:56:00;3.20;;;2.90;;
19846;SDS011;10084;50.518;8.588;2023-03-01T10:58:26;3.00;;;2.70;;
19846;SDS011;10084;50.518;8.588;2023-03-01T11:00:54;3.60;;;2.73;;
19846;SDS011;10084;50.518;8.588;2023-03-01T11:03:32;2.37;;;1.97;;
19846;SDS011;10084;50.518;8.588;2023-03-01T11:13:58;3.00;;;2.80;;
19846;SDS011;10084;50.518;8.588;2023-03-01T11:16:30;9.47;;;8.77;;
19846;SDS011;10084;50.518;8.588;2023-03-01T11:19:20;11.30;;;10.17;;
19846;SDS011;10084;50.518;8.588;2023-03-01T11:29:47;11.47;;;10.47;;
19846;SDS011;10084;50.518;8.588;2023-03-01T11:32:31;10.70;;;9.60;;
19846;SDS011;10084;50.518;8.588;2023-03-01T11:35:10;9.03;;;8.23;;
19846;SDS011;10084;50.518;8.588;2023-03-01T11:40:33;12.17;;;10.97;;
19846;SDS011;10084;50.518;8.588;2023-03-01T11:43:11;11.80;;;10.43;;
19846;SDS011;10084;50.518;8.588;2023-03-01T11:45:47;11.33;;;10.23;;
19846;SDS011;10084;50.518;8.588;2023-03-01T11:51:42;7.50;;;6.97;;
19846;SDS011;10084;50.518;8.588;2023-03-01T11:54:34;7.30;;;6.60;;
19846;SDS011;10084;50.518;8.588;2023-03-01T11:57:13;7.13;;;6.63;;
19846;SDS011;10084;50.518;8.588;2023-03-01T12:10:26;6.23;;;5.73;;
19846;SDS011;10084;50.518;8.588;2023-03-01T12:15:58;5.43;;;4.97;;
19846;SDS011;10084;50.518;8.588;2023-03-01T12:18:41;5.40;;;4.90;;
19846;SDS011;10084;50.518;8.588;2023-03-01T12:29:06;5.27;;;4.87;;
19846;SDS011;10084;50.518;8.588;2023-03-01T12:37:59;4.40;;;4.10;;
19846;SDS011;10084;50.518;8.588;2023-03-01T12:43:07;5.17;;;4.80;;
19846;SDS011;10084;50.518;8.588;2023-03-01T12:46:14;5.20;;;4.80;;
19846;SDS011;10084;50.518;8.588;2023-03-01T12:48:55;8.07;;;5.23;;
19846;SDS011;10084;50.518;8.588;2023-03-01T12:51:30;4.90;;;4.50;;
19846;SDS011;10084;50.518;8.588;2023-03-01T12:53:58;5.37;;;4.87;;
19846;SDS011;10084;50.518;8.588;2023-03-01T12:56:30;5.03;;;4.63;;
19846;SDS011;10084;50.518;8.588;2023-03-01T12:59:02;8.00;;;5.27;;
19846;SDS011;10084;50.518;8.588;2023-03-01T13:01:41;6.60;;;5.37;;
19846;SDS011;10084;50.518;8.588;2023-03-01T13:04:36;4.60;;;4.30;;
19846;SDS011;10084;50.518;8.588;2023-03-01T13:20:19;5.43;;;4.93;;
19846;SDS011;10084;50.518;8.588;2023-03-01T13:22:59;4.40;;;4.10;;
19846;SDS011;10084;50.518;8.588;2023-03-01T13:25:59;4.07;;;3.77;;
19846;SDS011;10084;50.518;8.588;2023-03-01T13:33:41;4.07;;;3.77;;
19846;SDS011;10084;50.518;8.588;2023-03-01T13:36:09;4.50;;;4.20;;
19846;SDS011;10084;50.518;8.588;2023-03-01T13:39:39;4.07;;;3.73;;
19846;SDS011;10084;50.518;8.588;2023-03-01T13:41:50;4.57;;;4.27;;
19846;SDS011;10084;50.518;8.588;2023-03-01T13:46:53;4.03;;;3.73;;
19846;SDS011;10084;50.518;8.588;2023-03-01T13:49:42;4.27;;;3.97;;
19846;SDS011;10084;50.518;8.588;2023-03-01T13:52:59;3.97;;;3.77;;
19846;SDS011;10084;50.518;8.588;2023-03-01T13:55:24;4.97;;;4.47;;
19846;SDS011;10084;50.518;8.588;2023-03-01T13:57:56;5.45;;;4.95;;
19846;SDS011;10084;50.518;8.588;2023-03-01T14:00:37;5.67;;;5.17;;
19846;SDS011;10084;50.518;8.588;2023-03-01T14:03:06;8.05;;;5.40;;
19846;SDS011;10084;50.518;8.588;2023-03-01T14:05:41;5.00;;;4.60;;
19846;SDS011;10084;50.518;8.588;2023-03-01T14:08:22;4.90;;;4.50;;
19846;SDS011;10084;50.518;8.588;2023-03-01T14:16:19;5.50;;;5.00;;
19846;SDS011;10084;50.518;8.588;2023-03-01T14:21:27;5.10;;;4.70;;
19846;SDS011;10084;50.518;8.588;2023-03-01T14:23:54;5.13;;;4.73;;
19846;SDS011;10084;50.518;8.588;2023-03-01T14:26:21;5.40;;;4.87;;
19846;SDS011;10084;50.518;8.588;2023-03-01T14:28:47;4.80;;;4.40;;
19846;SDS011;10084;50.518;8.588;2023-03-01T14:33:59;4.70;;;4.20;;
19846;SDS011;10084;50.518;8.588;2023-03-01T14:36:26;4.20;;;3.80;;
19846;SDS011;10084;50.518;8.588;2023-03-01T14:38:54;3.70;;;3.40;;
19846;SDS011;10084;50.518;8.588;2023-03-01T14:41:21;3.80;;;3.43;;
19846;SDS011;10084;50.518;8.588;2023-03-01T14:44:22;3.60;;;3.30;;
19846;SDS011;10084;50.518;8.588;2023-03-01T14:46:51;3.60;;;3.30;;
19846;SDS011;10084;50.518;8.588;2023-03-01T14:49:19;3.53;;;3.27;;
19846;SDS011;10084;50.518;8.588;2023-03-01T14:52:06;3.67;;;3.33;;
19846;SDS011;10084;50.518;8.588;2023-03-01T14:54:43;3.90;;;3.60;;
19846;SDS011;10084;50.518;8.588;2023-03-01T14:57:13;3.33;;;3.03;;
19846;SDS011;10084;50.518;8.588;2023-03-01T14:59:41;3.73;;;3.37;;
19846;SDS011;10084;50.518;8.588;2023-03-01T15:02:08;4.03;;;3.67;;
19846;SDS011;10084;50.518;8.588;2023-03-01T15:04:42;3.00;;;2.70;;
19846;SDS011;10084;50.518;8.588;2023-03-01T15:07:12;2.90;;;2.70;;
19846;SDS011;10084;50.518;8.588;2023-03-01T15:09:39;3.33;;;3.13;;
19846;SDS011;10084;50.518;8.588;2023-03-01T15:14:56;3.80;;;3.10;;
19846;SDS011;10084;50.518;8.588;2023-03-01T15:17:30;3.13;;;2.90;;
19846;SDS011;10084;50.518;8.588;2023-03-01T15:20:02;4.37;;;2.83;;
19846;SDS011;10084;50.518;8.588;2023-03-01T15:22:30;2.60;;;2.40;;
19846;SDS011;10084;50.518;8.588;2023-03-01T15:24:56;3.53;;;2.27;;
19846;SDS011;10084;50.518;8.588;2023-03-01T15:27:24;2.37;;;2.17;;
19846;SDS011;10084;50.518;8.588;2023-03-01T15:30:00;2.33;;;2.10;;
19846;SDS011;10084;50.518;8.588;2023-03-01T15:35:09;3.87;;;1.90;;
19846;SDS011;10084;50.518;8.588;2023-03-01T15:38:29;2.20;;;2.00;;
19846;SDS011;10084;50.518;8.588;2023-03-01T15:40:53;2.37;;;1.87;;
19846;SDS011;10084;50.518;8.588;2023-03-01T15:46:12;5.70;;;1.87;;
19846;SDS011;10084;50.518;8.588;2023-03-01T15:48:52;2.47;;;1.40;;
19846;SDS011;10084;50.518;8.588;2023-03-01T15:51:28;4.57;;;1.70;;
19846;SDS011;10084;50.518;8.588;2023-03-01T15:53:58;1.50;;;1.40;;
19846;SDS011;10084;50.518;8.588;2023-03-01T15:56:43;2.23;;;1.30;;
19846;SDS011;10084;50.518;8.588;2023-03-01T15:59:09;1.10;;;0.90;;
19846;SDS011;10084;50.518;8.588;2023-03-01T16:01:42;3.43;;;1.47;;
19846;SDS011;10084;50.518;8.588;2023-03-01T16:04:12;1.77;;;1.03;;
19846;SDS011;10084;50.518;8.588;2023-03-01T16:06:45;1.10;;;1.00;;
19846;SDS011;10084;50.518;8.588;2023-03-01T16:09:12;1.77;;;1.33;;
19846;SDS011;10084;50.518;8.588;2023-03-01T16:11:38;2.17;;;1.23;;
19846;SDS011;10084;50.518;8.588;2023-03-01T16:14:05;2.10;;;0.93;;
19846;SDS011;10084;50.518;8.588;2023-03-01T16:16:31;1.50;;;1.30;;
19846;SDS011;10084;50.518;8.588;2023-03-01T16:18:57;7.40;;;1.37;;
19846;SDS011;10084;50.518;8.588;2023-03-01T16:21:23;2.57;;;2.37;;
19846;SDS011;10084;50.518;8.588;2023-03-01T16:23:50;5.03;;;4.67;;
19846;SDS011;10084;50.518;8.588;2023-03-01T16:26:17;11.07;;;10.13;;
19846;SDS011;10084;50.518;8.588;2023-03-01T16:28:44;21.43;;;19.83;;
19846;SDS011;10084;50.518;8.588;2023-03-01T16:31:11;34.30;;;30.70;;
19846;SDS011;10084;50.518;8.588;2023-03-01T16:33:37;40.50;;;34.93;;
19846;SDS011;10084;50.518;8.588;2023-03-01T16:36:07;45.63;;;36.87;;
19846;SDS011;10084;50.518;8.588;2023-03-01T16:38:37;47.67;;;38.37;;
19846;SDS011;10084;50.518;8.588;2023-03-01T16:41:05;37.13;;;33.23;;
19846;SDS011;10084;50.518;8.588;2023-03-01T16:43:36;27.13;;;23.77;;
19846;SDS011;10084;50.518;8.588;2023-03-01T16:46:03;21.43;;;19.53;;
19846;SDS011;10084;50.518;8.588;2023-03-01T16:48:38;14.87;;;13.77;;
19846;SDS011;10084;50.518;8.588;2023-03-01T16:51:04;7.57;;;6.97;;
19846;SDS011;10084;50.518;8.588;2023-03-01T16:53:32;7.20;;;6.70;;
19846;SDS011;10084;50.518;8.588;2023-03-01T16:56:01;6.60;;;6.03;;
19846;SDS011;10084;50.518;8.588;2023-03-01T16:58:28;9.10;;;8.13;;
19846;SDS011;10084;50.518;8.588;2023-03-01T17:00:54;37.53;;;7.60;;
19846;SDS011;10084;50.518;8.588;2023-03-01T17:03:24;35.93;;;7.47;;
19846;SDS011;10084;50.518;8.588;2023-03-01T17:05:51;28.57;;;7.53;;
19846;SDS011;10084;50.518;8.588;2023-03-01T17:08:17;21.27;;;6.53;;
19846;SDS011;10084;50.518;8.588;2023-03-01T17:10:43;20.50;;;6.00;;
19846;SDS011;10084;50.518;8.588;2023-03-01T17:13:09;10.47;;;5.57;;
19846;SDS011;10084;50.518;8.588;2023-03-01T17:15:39;12.33;;;4.87;;
19846;SDS011;10084;50.518;8.588;2023-03-01T17:18:06;6.67;;;4.60;;
19846;SDS011;10084;50.518;8.588;2023-03-01T17:20:33;9.73;;;4.07;;
19846;SDS011;10084;50.518;8.588;2023-03-01T17:22:58;7.33;;;4.30;;
19846;SDS011;10084;50.518;8.588;2023-03-01T17:25:24;24.10;;;4.50;;
19846;SDS011;10084;50.518;8.588;2023-03-01T17:27:50;4.63;;;3.87;;
19846;SDS011;10084;50.518;8.588;2023-03-01T17:30:16;4.90;;;3.87;;
19846;SDS011;10084;50.518;8.588;2023-03-01T17:32:42;8.43;;;4.07;;
19846;SDS011;10084;50.518;8.588;2023-03-01T17:35:08;4.03;;;3.50;;
19846;SDS011;10084;50.518;8.588;2023-03-01T17:37:36;4.13;;;3.57;;
19846;SDS011;10084;50.518;8.588;2023-03-01T17:40:04;6.50;;;3.50;;
19846;SDS011;10084;50.518;8.588;2023-03-01T17:42:31;9.20;;;3.03;;
19846;SDS011;10084;50.518;8.588;2023-03-01T17:44:57;3.97;;;3.33;;
19846;SDS011;10084;50.518;8.588;2023-03-01T17:47:23;7.47;;;3.30;;
19846;SDS011;10084;50.518;8.588;2023-03-01T17:49:49;11.80;;;3.57;;
19846;SDS011;10084;50.518;8.588;2023-03-01T17:52:15;3.80;;;3.40;;
19846;SDS011;10084;50.518;8.588;2023-03-01T17:54:41;4.03;;;3.70;;
19846;SDS011;10084;50.518;8.588;2023-03-01T17:57:07;3.10;;;2.90;;
19846;SDS011;10084;50.518;8.588;2023-03-01T17:59:36;3.47;;;3.13;;
19846;SDS011;10084;50.518;8.588;2023-03-01T18:02:02;3.33;;;3.13;;
19846;SDS011;10084;50.518;8.588;2023-03-01T18:04:28;3.00;;;2.80;;
19846;SDS011;10084;50.518;8.588;2023-03-01T18:06:54;3.50;;;3.20;;
19846;SDS011;10084;50.518;8.588;2023-03-01T18:09:20;4.90;;;3.20;;
19846;SDS011;10084;50.518;8.588;2023-03-01T18:11:46;3.73;;;3.43;;
19846;SDS011;10084;50.518;8.588;2023-03-01T18:14:12;3.87;;;3.53;;
19846;SDS011;10084;50.518;8.588;2023-03-01T18:16:38;3.50;;;3.20;;
19846;SDS011;10084;50.518;8.588;2023-03-01T18:19:04;16.93;;;15.70;;
19846;SDS011;10084;50.518;8.588;2023-03-01T18:21:30;14.43;;;13.30;;
19846;SDS011;10084;50.518;8.588;2023-03-01T18:23:56;11.30;;;10.43;;
19846;SDS011;10084;50.518;8.588;2023-03-01T18:26:24;10.07;;;9.47;;
19846;SDS011;10084;50.518;8.588;2023-03-01T18:28:51;9.03;;;8.23;;
19846;SDS011;10084;50.518;8.588;2023-03-01T18:31:18;9.00;;;8.17;;
19846;SDS011;10084;50.518;8.588;2023-03-01T18:33:46;7.60;;;7.00;;
19846;SDS011;10084;50.518;8.588;2023-03-01T18:36:20;6.77;;;6.37;;
19846;SDS011;10084;50.518;8.588;2023-03-01T18:38:48;7.03;;;6.53;;
19846;SDS011;10084;50.518;8.588;2023-03-01T18:41:15;5.17;;;4.87;;
19846;SDS011;10084;50.518;8.588;2023-03-01T18:43:41;5.30;;;5.00;;
19846;SDS011;10084;50.518;8.588;2023-03-01T18:46:07;5.50;;;5.10;;
19846;SDS011;10084;50.518;8.588;2023-03-01T18:48:32;5.40;;;4.87;;
19846;SDS011;10084;50.518;8.588;2023-03-01T18:51:10;5.03;;;4.53;;
19846;SDS011;10084;50.518;8.588;2023-03-01T18:53:44;4.27;;;3.77;;
19846;SDS011;10084;50.518;8.588;2023-03-01T18:56:10;4.80;;;4.50;;
19846;SDS011;10084;50.518;8.588;2023-03-01T18:58:36;4.30;;;4.00;;
19846;SDS011;10084;50.518;8.588;2023-03-01T19:01:03;4.47;;;4.10;;
19846;SDS011;10084;50.518;8.588;2023-03-01T19:03:33;4.37;;;4.07;;
19846;SDS011;10084;50.518;8.588;2023-03-01T19:05:59;4.03;;;3.63;;
19846;SDS011;10084;50.518;8.588;2023-03-01T19:08:27;3.60;;;3.30;;
19846;SDS011;10084;50.518;8.588;2023-03-01T19:10:55;4.27;;;3.83;;
19846;SDS011;10084;50.518;8.588;2023-03-01T19:13:22;5.13;;;3.23;;
19846;SDS011;10084;50.518;8.588;2023-03-01T19:15:48;3.33;;;3.03;;
19846;SDS011;10084;50.518;8.588;2023-03-01T19:18:14;3.50;;;3.20;;
19846;SDS011;10084;50.518;8.588;2023-03-01T19:20:40;3.07;;;2.87;;
19846;SDS011;10084;50.518;8.588;2023-03-01T19:23:06;3.93;;;3.53;;
19846;SDS011;10084;50.518;8.588;2023-03-01T19:25:32;3.13;;;2.50;;
19846;SDS011;10084;50.518;8.588;2023-03-01T19:27:59;3.23;;;3.03;;
19846;SDS011;10084;50.518;8.588;2023-03-01T19:30:25;2.63;;;2.43;;
19846;SDS011;10084;50.518;8.588;2023-03-01T19:32:54;3.17;;;2.93;;
19846;SDS011;10084;50.518;8.588;2023-03-01T19:35:20;2.93;;;2.73;;
19846;SDS011;10084;50.518;8.588;2023-03-01T19:37:47;2.97;;;2.70;;
19846;SDS011;10084;50.518;8.588;2023-03-01T19:40:13;3.67;;;2.50;;
19846;SDS011;10084;50.518;8.588;2023-03-01T19:42:39;2.73;;;2.53;;
19846;SDS011;10084;50.518;8.588;2023-03-01T19:45:04;2.20;;;2.10;;
19846;SDS011;10084;50.518;8.588;2023-03-01T19:47:31;2.77;;;2.57;;
19846;SDS011;10084;50.518;8.588;2023-03-01T19:49:57;2.53;;;2.33;;
19846;SDS011;10084;50.518;8.588;2023-03-01T19:52:23;5.70;;;5.30;;
19846;SDS011;10084;50.518;8.588;2023-03-01T19:54:48;7.80;;;7.20;;
19846;SDS011;10084;50.518;8.588;2023-03-01T19:57:14;12.73;;;11.80;;
19846;SDS011;10084;50.518;8.588;2023-03-01T19:59:40;9.93;;;9.23;;
19846;SDS011;10084;50.518;8.588;2023-03-01T20:02:07;8.90;;;8.40;;
19846;SDS011;10084;50.518;8.588;2023-03-01T20:04:34;7.67;;;7.17;;
19846;SDS011;10084;50.518;8.588;2023-03-01T20:06:59;6.83;;;6.40;;
19846;SDS011;10084;50.518;8.588;2023-03-01T20:09:25;5.80;;;5.50;;
19846;SDS011;10084;50.518;8.588;2023-03-01T20:11:51;7.17;;;6.77;;
19846;SDS011;10084;50.518;8.588;2023-03-01T20:14:17;5.20;;;4.87;;
19846;SDS011;10084;50.518;8.588;2023-03-01T20:16:44;5.40;;;5.10;;
19846;SDS011;10084;50.518;8.588;2023-03-01T20:19:09;4.90;;;4.60;;
19846;SDS011;10084;50.518;8.588;2023-03-01T20:21:35;4.47;;;4.07;;
19846;SDS011;10084;50.518;8.588;2023-03-01T20:24:01;4.13;;;3.83;;
19846;SDS011;10084;50.518;8.588;2023-03-01T20:26:27;4.30;;;4.00;;
19846;SDS011;10084;50.518;8.588;2023-03-01T20:28:54;3.63;;;3.33;;
19846;SDS011;10084;50.518;8.588;2023-03-01T20:31:22;3.80;;;3.50;;
19846;SDS011;10084;50.518;8.588;2023-03-01T20:33:54;3.70;;;3.40;;
19846;SDS011;10084;50.518;8.588;2023-03-01T20:36:21;3.23;;;3.00;;
19846;SDS011;10084;50.518;8.588;2023-03-01T20:38:47;2.53;;;2.37;;
19846;SDS011;10084;50.518;8.588;2023-03-01T20:41:13;3.00;;;2.70;;
19846;SDS011;10084;50.518;8.588;2023-03-01T20:43:41;3.27;;;2.50;;
19846;SDS011;10084;50.518;8.588;2023-03-01T20:46:09;3.57;;;2.57;;
19846;SDS011;10084;50.518;8.588;2023-03-01T20:48:36;3.50;;;2.60;;
19846;SDS011;10084;50.518;8.588;2023-03-01T20:51:04;2.33;;;2.23;;
19846;SDS011;10084;50.518;8.588;2023-03-01T20:53:31;3.07;;;2.87;;
19846;SDS011;10084;50.518;8.588;2023-03-01T20:56:04;2.43;;;2.20;;
19846;SDS011;10084;50.518;8.588;2023-03-01T20:58:31;2.53;;;2.33;;
19846;SDS011;10084;50.518;8.588;2023-03-01T21:00:58;2.37;;;1.97;;
19846;SDS011;10084;50.518;8.588;2023-03-01T21:03:24;2.40;;;2.20;;
19846;SDS011;10084;50.518;8.588;2023-03-01T21:05:53;2.07;;;1.83;;
19846;SDS011;10084;50.518;8.588;2023-03-01T21:08:23;2.00;;;1.90;;
19846;SDS011;10084;50.518;8.588;2023-03-01T21:10:52;2.20;;;2.00;;
19846;SDS011;10084;50.518;8.588;2023-03-01T21:13:19;2.50;;;2.30;;
19846;SDS011;10084;50.518;8.588;2023-03-01T21:15:55;3.97;;;1.60;;
19846;SDS011;10084;50.518;8.588;2023-03-01T21:18:21;2.10;;;1.90;;
19846;SDS011;10084;50.518;8.588;2023-03-01T21:20:47;2.00;;;1.90;;
19846;SDS011;10084;50.518;8.588;2023-03-01T21:23:13;2.93;;;2.10;;
19846;SDS011;10084;50.518;8.588;2023-03-01T21:25:39;2.23;;;2.03;;
19846;SDS011;10084;50.518;8.588;2023-03-01T21:28:05;2.53;;;2.40;;
19846;SDS011;10084;50.518;8.588;2023-03-01T21:30:31;2.90;;;2.53;;
19846;SDS011;10084;50.518;8.588;2023-03-01T21:32:56;2.77;;;2.57;;
19846;SDS011;10084;50.518;8.588;2023-03-01T21:35:22;2.57;;;2.37;;
19846;SDS011;10084;50.518;8.588;2023-03-01T21:37:48;2.17;;;2.03;;
19846;SDS011;10084;50.518;8.588;2023-03-01T21:40:13;2.57;;;2.47;;
19846;SDS011;10084;50.518;8.588;2023-03-01T21:42:39;2.67;;;2.47;;
19846;SDS011;10084;50.518;8.588;2023-03-01T21:45:08;2.47;;;2.37;;
19846;SDS011;10084;50.518;8.588;2023-03-01T21:47:34;2.50;;;2.30;;
19846;SDS011;10084;50.518;8.588;2023-03-01T21:50:00;2.30;;;2.10;;
19846;SDS011;10084;50.518;8.588;2023-03-01T21:52:26;3.47;;;2.43;;
19846;SDS011;10084;50.518;8.588;2023-03-01T21:54:52;3.63;;;2.37;;
19846;SDS011;10084;50.518;8.588;2023-03-01T21:57:19;2.53;;;2.33;;
19846;SDS011;10084;50.518;8.588;2023-03-01T21:59:45;2.67;;;2.47;;
